Bookmark and Share
Track history (hours):
 

Norman Atlantic

Last reported at 2014-Apr-19 14:33 UTC. Time now 2014-Apr-19 14:43 UTC.
Position N 43°33' W 005°41'.

Length 186 m; draft 6.8 m.

Type: Passenger vessel. MMSI: 247277400.

NotesDate/timePositionNaut miles runAvg speedWind from/ knotsBaromVisibWave heightAir tempDewpointWater temp
2014-Apr-19 14:33N 43°33' W 005°41'0 0.0
2014-Apr-19 13:12N 43°33' W 005°41'0 0.0
2014-Apr-19 12:32N 43°33' W 005°41'1 1.0
2014-Apr-19 11:29N 43°34' W 005°40'1718.6
2014-Apr-19 10:33N 43°49' W 005°27'233 8.6
2014-Apr-18 07:31N 47°05' W 002°26'1717.2
2014-Apr-18 06:33N 46°56' W 002°48'1817.4
2014-Apr-18 05:32N 46°42' W 003°03'1717.8
2014-Apr-18 04:34N 46°28' W 003°17'2017.8
2014-Apr-18 03:27N 46°10' W 003°31'3918.0
2014-Apr-18 01:16N 45°36' W 003°59'1417.7
2014-Apr-18 00:28N 45°24' W 004°09'10718.1
2014-Apr-17 18:32N 43°51' W 005°25'1919.4
2014-Apr-17 17:33N 43°35' W 005°38'3 0.5
2014-Apr-17 12:27N 43°33' W 005°41'0 0.0
2014-Apr-17 10:32N 43°33' W 005°41'0 0.0
2014-Apr-17 09:30N 43°33' W 005°41'0 0.0
2014-Apr-17 08:33N 43°33' W 005°41'1313.0
2014-Apr-17 07:34N 43°44' W 005°31'8 0.2
2014-Apr-15 18:32N 43°51' W 005°25'1918.8
2014-Apr-15 17:33N 43°35' W 005°38'2 0.3
2014-Apr-15 08:34N 43°33' W 005°41'10 5.0
2014-Apr-15 06:34N 43°41' W 005°33'18218.2
2014-Apr-14 20:34N 46°17' W 003°19'1917.9
2014-Apr-14 19:31N 46°33' W 003°04'188 6.5
2014-Apr-13 14:25N 43°53' W 005°22'1618.9
2014-Apr-13 13:33N 43°39' W 005°35'7 6.8
2014-Apr-13 12:30N 43°33' W 005°41'0 0.0
2014-Apr-13 11:33N 43°33' W 005°41'0 0.0
2014-Apr-13 09:18N 43°33' W 005°41'0 0.0
2014-Apr-13 06:33N 43°33' W 005°41'0 0.0
2014-Apr-13 05:33N 43°33' W 005°41'0 0.0
2014-Apr-12 22:21N 43°33' W 005°41'0 0.0
2014-Apr-12 21:33N 43°33' W 005°41'0 0.0
2014-Apr-12 20:27N 43°33' W 005°41'0 0.0
2014-Apr-12 19:33N 43°33' W 005°41'0 0.0
2014-Apr-12 18:33N 43°33' W 005°41'0 0.0
2014-Apr-12 17:33N 43°33' W 005°41'0 0.0
2014-Apr-12 16:24N 43°33' W 005°41'0 0.0
2014-Apr-12 15:03N 43°33' W 005°41'0 0.0
2014-Apr-12 14:26N 43°33' W 005°41'0 0.0
2014-Apr-12 12:31N 43°33' W 005°41'0 0.1
2014-Apr-12 11:33N 43°33' W 005°41'1616.3
2014-Apr-12 10:34N 43°47' W 005°29'  

Dump ship's entire track history

sailing weather and tide predictions

Norman Atlantic — IBUM — position and weather